sensor_id;sensor_type;location;lat;lon;timestamp;temperature;humidity
32400;DHT22;45045;45.440;9.178;2023-06-14T00:00:18;24.50;99.90
32400;DHT22;45045;45.440;9.178;2023-06-14T00:02:45;24.30;99.90
32400;DHT22;45045;45.440;9.178;2023-06-14T00:05:11;24.20;99.90
32400;DHT22;45045;45.440;9.178;2023-06-14T00:07:41;24.20;99.90
32400;DHT22;45045;45.440;9.178;2023-06-14T00:10:08;24.20;99.90
32400;DHT22;45045;45.440;9.178;2023-06-14T00:12:34;24.40;99.90
32400;DHT22;45045;45.440;9.178;2023-06-14T00:15:00;24.80;99.90
32400;DHT22;45045;45.440;9.178;2023-06-14T00:17:29;24.90;99.90
32400;DHT22;45045;45.440;9.178;2023-06-14T00:19:58;24.90;99.90
32400;DHT22;45045;45.440;9.178;2023-06-14T00:22:24;24.80;99.90
32400;DHT22;45045;45.440;9.178;2023-06-14T00:24:51;24.60;99.90
32400;DHT22;45045;45.440;9.178;2023-06-14T00:27:17;24.20;99.90
32400;DHT22;45045;45.440;9.178;2023-06-14T00:29:43;24.30;99.90
32400;DHT22;45045;45.440;9.178;2023-06-14T00:32:08;24.10;99.90
32400;DHT22;45045;45.440;9.178;2023-06-14T00:34:34;24.00;99.90
32400;DHT22;45045;45.440;9.178;2023-06-14T00:37:00;24.00;99.90
32400;DHT22;45045;45.440;9.178;2023-06-14T00:39:26;24.10;99.90
32400;DHT22;45045;45.440;9.178;2023-06-14T00:41:51;24.40;99.90
32400;DHT22;45045;45.440;9.178;2023-06-14T00:44:17;23.90;99.90
32400;DHT22;45045;45.440;9.178;2023-06-14T00:46:45;23.40;99.90
32400;DHT22;45045;45.440;9.178;2023-06-14T00:49:12;23.40;99.90
32400;DHT22;45045;45.440;9.178;2023-06-14T00:51:39;23.90;99.90
32400;DHT22;45045;45.440;9.178;2023-06-14T00:54:05;24.50;99.90
32400;DHT22;45045;45.440;9.178;2023-06-14T00:56:30;24.70;99.90
32400;DHT22;45045;45.440;9.178;2023-06-14T00:58:57;24.70;99.90
32400;DHT22;45045;45.440;9.178;2023-06-14T01:01:24;24.60;99.90
32400;DHT22;45045;45.440;9.178;2023-06-14T01:03:49;24.50;99.90
32400;DHT22;45045;45.440;9.178;2023-06-14T01:09:35;24.40;99.90
32400;DHT22;45045;45.440;9.178;2023-06-14T01:12:16;24.50;99.90
32400;DHT22;45045;45.440;9.178;2023-06-14T01:14:46;24.50;99.90
32400;DHT22;45045;45.440;9.178;2023-06-14T01:17:14;24.60;99.90
32400;DHT22;45045;45.440;9.178;2023-06-14T01:19:45;24.60;99.90
32400;DHT22;45045;45.440;9.178;2023-06-14T01:22:11;24.60;99.90
32400;DHT22;45045;45.440;9.178;2023-06-14T01:24:37;24.60;99.90
32400;DHT22;45045;45.440;9.178;2023-06-14T01:27:05;24.60;99.90
32400;DHT22;45045;45.440;9.178;2023-06-14T01:29:31;24.80;99.90
32400;DHT22;45045;45.440;9.178;2023-06-14T01:32:01;24.80;99.90
32400;DHT22;45045;45.440;9.178;2023-06-14T01:34:27;24.90;99.90
32400;DHT22;45045;45.440;9.178;2023-06-14T01:36:53;25.10;99.90
32400;DHT22;45045;45.440;9.178;2023-06-14T01:39:23;25.10;99.90
32400;DHT22;45045;45.440;9.178;2023-06-14T01:41:49;25.20;99.90
32400;DHT22;45045;45.440;9.178;2023-06-14T01:44:17;25.30;99.90
32400;DHT22;45045;45.440;9.178;2023-06-14T01:46:44;25.30;99.90
32400;DHT22;45045;45.440;9.178;2023-06-14T01:49:11;25.30;99.90
32400;DHT22;45045;45.440;9.178;2023-06-14T01:51:37;25.30;99.90
32400;DHT22;45045;45.440;9.178;2023-06-14T01:54:02;25.20;99.90
32400;DHT22;45045;45.440;9.178;2023-06-14T01:56:29;25.20;99.90
32400;DHT22;45045;45.440;9.178;2023-06-14T01:58:55;25.20;99.90
32400;DHT22;45045;45.440;9.178;2023-06-14T02:01:22;25.20;99.90
32400;DHT22;45045;45.440;9.178;2023-06-14T02:03:48;25.10;99.90
32400;DHT22;45045;45.440;9.178;2023-06-14T02:06:14;24.80;99.90
32400;DHT22;45045;45.440;9.178;2023-06-14T02:08:41;24.80;99.90
32400;DHT22;45045;45.440;9.178;2023-06-14T02:11:08;24.70;99.90
32400;DHT22;45045;45.440;9.178;2023-06-14T02:13:33;24.70;99.90
32400;DHT22;45045;45.440;9.178;2023-06-14T02:16:00;24.70;99.90
32400;DHT22;45045;45.440;9.178;2023-06-14T02:18:26;24.50;99.90
32400;DHT22;45045;45.440;9.178;2023-06-14T02:20:51;24.50;99.90
32400;DHT22;45045;45.440;9.178;2023-06-14T02:23:17;24.60;99.90
32400;DHT22;45045;45.440;9.178;2023-06-14T02:25:43;24.80;99.90
32400;DHT22;45045;45.440;9.178;2023-06-14T02:28:10;24.90;99.90
32400;DHT22;45045;45.440;9.178;2023-06-14T02:30:36;25.10;99.90
32400;DHT22;45045;45.440;9.178;2023-06-14T02:33:01;24.90;99.90
32400;DHT22;45045;45.440;9.178;2023-06-14T02:35:29;24.80;99.90
32400;DHT22;45045;45.440;9.178;2023-06-14T02:37:55;24.70;99.90
32400;DHT22;45045;45.440;9.178;2023-06-14T02:40:20;24.80;99.90
32400;DHT22;45045;45.440;9.178;2023-06-14T02:42:46;24.60;99.90
32400;DHT22;45045;45.440;9.178;2023-06-14T02:45:12;24.40;99.90
32400;DHT22;45045;45.440;9.178;2023-06-14T02:47:38;24.60;99.90
32400;DHT22;45045;45.440;9.178;2023-06-14T02:50:03;24.50;99.90
32400;DHT22;45045;45.440;9.178;2023-06-14T02:52:29;24.50;99.90
32400;DHT22;45045;45.440;9.178;2023-06-14T02:54:55;24.50;99.90
32400;DHT22;45045;45.440;9.178;2023-06-14T02:57:22;24.60;99.90
32400;DHT22;45045;45.440;9.178;2023-06-14T02:59:47;24.50;99.90
32400;DHT22;45045;45.440;9.178;2023-06-14T03:02:14;24.60;99.90
32400;DHT22;45045;45.440;9.178;2023-06-14T03:04:40;24.70;99.90
32400;DHT22;45045;45.440;9.178;2023-06-14T03:07:06;24.70;99.90
32400;DHT22;45045;45.440;9.178;2023-06-14T03:09:37;24.70;99.90
32400;DHT22;45045;45.440;9.178;2023-06-14T03:12:04;24.60;99.90
32400;DHT22;45045;45.440;9.178;2023-06-14T03:14:31;24.80;99.90
32400;DHT22;45045;45.440;9.178;2023-06-14T03:16:57;24.90;99.90
32400;DHT22;45045;45.440;9.178;2023-06-14T03:19:23;24.90;99.90
32400;DHT22;45045;45.440;9.178;2023-06-14T03:21:49;24.70;99.90
32400;DHT22;45045;45.440;9.178;2023-06-14T03:24:15;24.70;99.90
32400;DHT22;45045;45.440;9.178;2023-06-14T03:26:44;24.60;99.90
32400;DHT22;45045;45.440;9.178;2023-06-14T03:29:09;24.70;99.90
32400;DHT22;45045;45.440;9.178;2023-06-14T03:31:35;24.80;99.90
32400;DHT22;45045;45.440;9.178;2023-06-14T03:34:01;24.60;99.90
32400;DHT22;45045;45.440;9.178;2023-06-14T03:36:27;24.70;99.90
32400;DHT22;45045;45.440;9.178;2023-06-14T03:38:53;24.60;99.90
32400;DHT22;45045;45.440;9.178;2023-06-14T03:41:20;24.80;99.90
32400;DHT22;45045;45.440;9.178;2023-06-14T03:43:46;24.90;99.90
32400;DHT22;45045;45.440;9.178;2023-06-14T03:46:12;24.80;99.90
32400;DHT22;45045;45.440;9.178;2023-06-14T03:48:37;24.80;99.90
32400;DHT22;45045;45.440;9.178;2023-06-14T03:51:04;24.80;99.90
32400;DHT22;45045;45.440;9.178;2023-06-14T03:53:30;24.90;99.90
32400;DHT22;45045;45.440;9.178;2023-06-14T03:55:56;24.50;99.90
32400;DHT22;45045;45.440;9.178;2023-06-14T03:58:23;24.60;99.90
32400;DHT22;45045;45.440;9.178;2023-06-14T04:00:48;24.60;99.90
32400;DHT22;45045;45.440;9.178;2023-06-14T04:03:14;24.20;99.90
32400;DHT22;45045;45.440;9.178;2023-06-14T04:05:41;24.30;99.90
32400;DHT22;45045;45.440;9.178;2023-06-14T04:08:09;24.20;99.90
32400;DHT22;45045;45.440;9.178;2023-06-14T04:10:35;24.30;99.90
32400;DHT22;45045;45.440;9.178;2023-06-14T04:13:01;24.10;99.90
32400;DHT22;45045;45.440;9.178;2023-06-14T04:15:26;24.10;99.90
32400;DHT22;45045;45.440;9.178;2023-06-14T04:17:55;24.10;99.90
32400;DHT22;45045;45.440;9.178;2023-06-14T04:20:22;24.20;99.90
32400;DHT22;45045;45.440;9.178;2023-06-14T04:22:50;24.40;99.90
32400;DHT22;45045;45.440;9.178;2023-06-14T04:25:16;24.40;99.90
32400;DHT22;45045;45.440;9.178;2023-06-14T04:27:42;24.40;99.90
32400;DHT22;45045;45.440;9.178;2023-06-14T04:30:08;24.40;99.90
32400;DHT22;45045;45.440;9.178;2023-06-14T04:32:34;24.50;99.90
32400;DHT22;45045;45.440;9.178;2023-06-14T04:35:08;24.50;99.90
32400;DHT22;45045;45.440;9.178;2023-06-14T04:37:34;24.60;99.90
32400;DHT22;45045;45.440;9.178;2023-06-14T04:40:00;24.50;99.90
32400;DHT22;45045;45.440;9.178;2023-06-14T04:42:26;24.50;99.90
32400;DHT22;45045;45.440;9.178;2023-06-14T04:44:56;24.50;99.90
32400;DHT22;45045;45.440;9.178;2023-06-14T04:47:23;24.50;99.90
32400;DHT22;45045;45.440;9.178;2023-06-14T04:49:50;24.40;99.90
32400;DHT22;45045;45.440;9.178;2023-06-14T04:52:18;24.40;99.90
32400;DHT22;45045;45.440;9.178;2023-06-14T04:54:46;24.50;99.90
32400;DHT22;45045;45.440;9.178;2023-06-14T04:57:12;24.40;99.90
32400;DHT22;45045;45.440;9.178;2023-06-14T04:59:40;24.50;99.90
32400;DHT22;45045;45.440;9.178;2023-06-14T05:02:06;24.60;99.90
32400;DHT22;45045;45.440;9.178;2023-06-14T05:04:32;24.60;99.90
32400;DHT22;45045;45.440;9.178;2023-06-14T05:06:58;24.70;99.90
32400;DHT22;45045;45.440;9.178;2023-06-14T05:09:23;24.70;99.90
32400;DHT22;45045;45.440;9.178;2023-06-14T05:11:49;24.80;99.90
32400;DHT22;45045;45.440;9.178;2023-06-14T05:14:15;24.80;99.90
32400;DHT22;45045;45.440;9.178;2023-06-14T05:16:41;24.80;99.90
32400;DHT22;45045;45.440;9.178;2023-06-14T05:19:08;24.80;99.90
32400;DHT22;45045;45.440;9.178;2023-06-14T05:21:34;24.80;99.90
32400;DHT22;45045;45.440;9.178;2023-06-14T05:24:00;24.80;99.90
32400;DHT22;45045;45.440;9.178;2023-06-14T05:26:26;24.80;99.90
32400;DHT22;45045;45.440;9.178;2023-06-14T05:28:58;24.80;99.90
32400;DHT22;45045;45.440;9.178;2023-06-14T05:31:26;24.80;99.90
32400;DHT22;45045;45.440;9.178;2023-06-14T05:33:52;24.80;99.90
32400;DHT22;45045;45.440;9.178;2023-06-14T05:36:18;24.80;99.90
32400;DHT22;45045;45.440;9.178;2023-06-14T05:38:45;24.80;99.90
32400;DHT22;45045;45.440;9.178;2023-06-14T05:41:10;24.90;99.90
32400;DHT22;45045;45.440;9.178;2023-06-14T05:43:36;24.90;99.90
32400;DHT22;45045;45.440;9.178;2023-06-14T05:46:02;24.90;99.90
32400;DHT22;45045;45.440;9.178;2023-06-14T05:48:29;24.90;99.90
32400;DHT22;45045;45.440;9.178;2023-06-14T05:50:55;24.90;99.90
32400;DHT22;45045;45.440;9.178;2023-06-14T05:53:21;24.90;99.90
32400;DHT22;45045;45.440;9.178;2023-06-14T05:55:46;24.90;99.90
32400;DHT22;45045;45.440;9.178;2023-06-14T05:58:12;24.90;99.90
32400;DHT22;45045;45.440;9.178;2023-06-14T06:00:39;24.90;99.90
32400;DHT22;45045;45.440;9.178;2023-06-14T06:03:05;24.90;99.90
32400;DHT22;45045;45.440;9.178;2023-06-14T06:05:33;24.90;99.90
32400;DHT22;45045;45.440;9.178;2023-06-14T06:07:59;24.90;99.90
32400;DHT22;45045;45.440;9.178;2023-06-14T06:10:25;24.80;99.90
32400;DHT22;45045;45.440;9.178;2023-06-14T06:12:51;24.80;99.90
32400;DHT22;45045;45.440;9.178;2023-06-14T06:15:17;24.80;99.90
32400;DHT22;45045;45.440;9.178;2023-06-14T06:17:44;24.80;99.90
32400;DHT22;45045;45.440;9.178;2023-06-14T06:20:10;24.80;99.90
32400;DHT22;45045;45.440;9.178;2023-06-14T06:22:37;24.80;99.90
32400;DHT22;45045;45.440;9.178;2023-06-14T06:25:03;24.80;99.90
32400;DHT22;45045;45.440;9.178;2023-06-14T06:27:29;24.80;99.90
32400;DHT22;45045;45.440;9.178;2023-06-14T06:29:55;24.80;99.90
32400;DHT22;45045;45.440;9.178;2023-06-14T06:32:21;24.80;99.90
32400;DHT22;45045;45.440;9.178;2023-06-14T06:34:47;24.80;99.90
32400;DHT22;45045;45.440;9.178;2023-06-14T06:37:13;24.90;99.90
32400;DHT22;45045;45.440;9.178;2023-06-14T06:39:39;24.90;99.90
32400;DHT22;45045;45.440;9.178;2023-06-14T06:42:05;24.80;99.90
32400;DHT22;45045;45.440;9.178;2023-06-14T06:44:32;24.80;99.90
32400;DHT22;45045;45.440;9.178;2023-06-14T06:46:57;24.80;99.90
32400;DHT22;45045;45.440;9.178;2023-06-14T06:49:23;24.80;99.90
32400;DHT22;45045;45.440;9.178;2023-06-14T06:52:05;24.80;99.90
32400;DHT22;45045;45.440;9.178;2023-06-14T06:54:31;24.80;99.90
32400;DHT22;45045;45.440;9.178;2023-06-14T06:56:57;24.80;99.90
32400;DHT22;45045;45.440;9.178;2023-06-14T06:59:23;24.90;99.90
32400;DHT22;45045;45.440;9.178;2023-06-14T07:01:49;24.90;99.90
32400;DHT22;45045;45.440;9.178;2023-06-14T07:04:15;24.80;99.90
32400;DHT22;45045;45.440;9.178;2023-06-14T07:06:42;24.80;99.90
32400;DHT22;45045;45.440;9.178;2023-06-14T07:09:07;24.90;99.90
32400;DHT22;45045;45.440;9.178;2023-06-14T07:11:40;24.80;99.90
32400;DHT22;45045;45.440;9.178;2023-06-14T07:14:06;24.80;99.90
32400;DHT22;45045;45.440;9.178;2023-06-14T07:16:32;24.80;99.90
32400;DHT22;45045;45.440;9.178;2023-06-14T07:18:58;24.80;99.90
32400;DHT22;45045;45.440;9.178;2023-06-14T07:21:23;24.80;99.90
32400;DHT22;45045;45.440;9.178;2023-06-14T07:23:52;24.80;99.90
32400;DHT22;45045;45.440;9.178;2023-06-14T07:26:18;24.80;99.90
32400;DHT22;45045;45.440;9.178;2023-06-14T07:28:43;24.80;99.90
32400;DHT22;45045;45.440;9.178;2023-06-14T07:31:10;24.80;99.90
32400;DHT22;45045;45.440;9.178;2023-06-14T07:33:36;24.80;99.90
32400;DHT22;45045;45.440;9.178;2023-06-14T07:36:02;24.90;99.90
32400;DHT22;45045;45.440;9.178;2023-06-14T07:38:28;24.90;99.90
32400;DHT22;45045;45.440;9.178;2023-06-14T07:40:54;24.90;99.90
32400;DHT22;45045;45.440;9.178;2023-06-14T07:43:19;24.90;99.90
32400;DHT22;45045;45.440;9.178;2023-06-14T07:45:45;25.00;99.90
32400;DHT22;45045;45.440;9.178;2023-06-14T07:48:11;25.10;99.90
32400;DHT22;45045;45.440;9.178;2023-06-14T07:50:37;25.00;99.90
32400;DHT22;45045;45.440;9.178;2023-06-14T07:53:02;25.00;99.90
32400;DHT22;45045;45.440;9.178;2023-06-14T07:55:28;25.10;99.90
32400;DHT22;45045;45.440;9.178;2023-06-14T07:57:54;25.10;99.90
32400;DHT22;45045;45.440;9.178;2023-06-14T08:00:20;25.10;99.90
32400;DHT22;45045;45.440;9.178;2023-06-14T08:02:46;25.10;99.90
32400;DHT22;45045;45.440;9.178;2023-06-14T08:05:12;25.10;99.90
32400;DHT22;45045;45.440;9.178;2023-06-14T08:07:39;25.10;99.90
32400;DHT22;45045;45.440;9.178;2023-06-14T08:10:05;25.10;99.90
32400;DHT22;45045;45.440;9.178;2023-06-14T08:12:32;25.10;99.90
32400;DHT22;45045;45.440;9.178;2023-06-14T08:14:58;25.00;99.90
32400;DHT22;45045;45.440;9.178;2023-06-14T08:17:24;25.00;99.90
32400;DHT22;45045;45.440;9.178;2023-06-14T08:19:50;25.10;99.90
32400;DHT22;45045;45.440;9.178;2023-06-14T08:22:16;25.10;99.90
32400;DHT22;45045;45.440;9.178;2023-06-14T08:24:43;25.10;99.90
32400;DHT22;45045;45.440;9.178;2023-06-14T08:27:09;25.10;99.90
32400;DHT22;45045;45.440;9.178;2023-06-14T08:29:35;25.10;99.90
32400;DHT22;45045;45.440;9.178;2023-06-14T08:32:01;25.20;99.90
32400;DHT22;45045;45.440;9.178;2023-06-14T08:34:27;25.20;99.90
32400;DHT22;45045;45.440;9.178;2023-06-14T08:36:53;25.30;99.90
32400;DHT22;45045;45.440;9.178;2023-06-14T08:39:18;25.30;99.40
32400;DHT22;45045;45.440;9.178;2023-06-14T08:41:47;25.30;99.80
32400;DHT22;45045;45.440;9.178;2023-06-14T08:44:16;25.30;99.80
32400;DHT22;45045;45.440;9.178;2023-06-14T08:46:43;25.20;99.10
32400;DHT22;45045;45.440;9.178;2023-06-14T08:49:11;25.20;99.60
32400;DHT22;45045;45.440;9.178;2023-06-14T08:51:37;25.20;98.90
32400;DHT22;45045;45.440;9.178;2023-06-14T08:54:04;25.30;99.40
32400;DHT22;45045;45.440;9.178;2023-06-14T08:56:31;25.30;99.00
32400;DHT22;45045;45.440;9.178;2023-06-14T08:59:00;25.30;99.10
32400;DHT22;45045;45.440;9.178;2023-06-14T09:01:33;25.30;98.50
32400;DHT22;45045;45.440;9.178;2023-06-14T09:04:00;25.30;98.40
32400;DHT22;45045;45.440;9.178;2023-06-14T09:06:25;25.40;98.50
32400;DHT22;45045;45.440;9.178;2023-06-14T09:08:55;25.40;98.40
32400;DHT22;45045;45.440;9.178;2023-06-14T09:11:23;25.50;98.80
32400;DHT22;45045;45.440;9.178;2023-06-14T09:13:49;25.50;98.50
32400;DHT22;45045;45.440;9.178;2023-06-14T09:16:15;25.50;98.30
32400;DHT22;45045;45.440;9.178;2023-06-14T09:18:46;25.50;98.30
32400;DHT22;45045;45.440;9.178;2023-06-14T09:21:13;25.50;98.30
32400;DHT22;45045;45.440;9.178;2023-06-14T09:23:46;25.20;98.80
32400;DHT22;45045;45.440;9.178;2023-06-14T09:26:17;25.30;99.20
32400;DHT22;45045;45.440;9.178;2023-06-14T09:31:16;25.60;99.10
32400;DHT22;45045;45.440;9.178;2023-06-14T09:33:46;25.70;99.10
32400;DHT22;45045;45.440;9.178;2023-06-14T09:36:16;25.60;99.00
32400;DHT22;45045;45.440;9.178;2023-06-14T09:38:55;25.50;99.30
32400;DHT22;45045;45.440;9.178;2023-06-14T09:41:30;25.60;99.40
32400;DHT22;45045;45.440;9.178;2023-06-14T09:43:57;25.60;99.50
32400;DHT22;45045;45.440;9.178;2023-06-14T09:46:26;25.70;99.50
32400;DHT22;45045;45.440;9.178;2023-06-14T09:48:52;25.80;99.40
32400;DHT22;45045;45.440;9.178;2023-06-14T09:51:19;25.70;99.00
32400;DHT22;45045;45.440;9.178;2023-06-14T09:53:48;25.70;99.40
32400;DHT22;45045;45.440;9.178;2023-06-14T09:56:17;25.60;99.20
32400;DHT22;45045;45.440;9.178;2023-06-14T09:58:46;25.70;99.40
32400;DHT22;45045;45.440;9.178;2023-06-14T10:01:13;25.80;99.30
32400;DHT22;45045;45.440;9.178;2023-06-14T10:03:39;25.70;98.80
32400;DHT22;45045;45.440;9.178;2023-06-14T10:06:07;25.70;98.70
32400;DHT22;45045;45.440;9.178;2023-06-14T10:08:36;25.80;98.70
32400;DHT22;45045;45.440;9.178;2023-06-14T10:11:03;25.80;98.50
32400;DHT22;45045;45.440;9.178;2023-06-14T10:13:32;25.90;98.50
32400;DHT22;45045;45.440;9.178;2023-06-14T10:21:51;25.70;94.20
32400;DHT22;45045;45.440;9.178;2023-06-14T10:24:57;25.60;97.10
32400;DHT22;45045;45.440;9.178;2023-06-14T10:27:16;25.70;97.40
32400;DHT22;45045;45.440;9.178;2023-06-14T10:32:23;25.90;97.00
32400;DHT22;45045;45.440;9.178;2023-06-14T10:35:01;25.80;96.80
32400;DHT22;45045;45.440;9.178;2023-06-14T10:37:27;25.60;96.80
32400;DHT22;45045;45.440;9.178;2023-06-14T10:39:53;25.90;97.40
32400;DHT22;45045;45.440;9.178;2023-06-14T10:42:19;25.90;96.10
32400;DHT22;45045;45.440;9.178;2023-06-14T10:44:52;25.90;96.40
32400;DHT22;45045;45.440;9.178;2023-06-14T10:50:08;26.00;95.40
32400;DHT22;45045;45.440;9.178;2023-06-14T10:52:38;26.10;95.90
32400;DHT22;45045;45.440;9.178;2023-06-14T10:57:52;26.30;95.80
32400;DHT22;45045;45.440;9.178;2023-06-14T11:00:26;26.30;95.20
32400;DHT22;45045;45.440;9.178;2023-06-14T11:10:43;26.60;95.60
32400;DHT22;45045;45.440;9.178;2023-06-14T11:13:11;26.80;95.50
32400;DHT22;45045;45.440;9.178;2023-06-14T11:15:38;26.90;95.50
32400;DHT22;45045;45.440;9.178;2023-06-14T11:18:09;26.80;95.10
32400;DHT22;45045;45.440;9.178;2023-06-14T11:20:35;26.80;94.90
32400;DHT22;45045;45.440;9.178;2023-06-14T11:23:02;26.90;95.10
32400;DHT22;45045;45.440;9.178;2023-06-14T11:25:28;27.00;94.20
32400;DHT22;45045;45.440;9.178;2023-06-14T11:27:54;26.90;94.70
32400;DHT22;45045;45.440;9.178;2023-06-14T11:30:21;26.80;93.10
32400;DHT22;45045;45.440;9.178;2023-06-14T11:32:48;26.80;93.30
32400;DHT22;45045;45.440;9.178;2023-06-14T11:35:16;26.80;93.60
32400;DHT22;45045;45.440;9.178;2023-06-14T11:37:43;26.80;94.10
32400;DHT22;45045;45.440;9.178;2023-06-14T11:40:11;26.90;93.70
32400;DHT22;45045;45.440;9.178;2023-06-14T11:42:38;27.00;93.90
32400;DHT22;45045;45.440;9.178;2023-06-14T11:45:07;27.00;94.00
32400;DHT22;45045;45.440;9.178;2023-06-14T11:47:36;27.20;93.80
32400;DHT22;45045;45.440;9.178;2023-06-14T11:50:04;27.30;93.40
32400;DHT22;45045;45.440;9.178;2023-06-14T11:52:31;27.30;93.10
32400;DHT22;45045;45.440;9.178;2023-06-14T11:54:57;27.40;92.00
32400;DHT22;45045;45.440;9.178;2023-06-14T11:57:23;27.30;91.50
32400;DHT22;45045;45.440;9.178;2023-06-14T11:59:49;27.40;92.80
32400;DHT22;45045;45.440;9.178;2023-06-14T12:02:19;27.60;92.20
32400;DHT22;45045;45.440;9.178;2023-06-14T12:04:47;27.60;91.70
32400;DHT22;45045;45.440;9.178;2023-06-14T12:07:17;27.50;91.00
32400;DHT22;45045;45.440;9.178;2023-06-14T12:12:24;27.70;90.40
32400;DHT22;45045;45.440;9.178;2023-06-14T12:14:54;27.60;87.40
32400;DHT22;45045;45.440;9.178;2023-06-14T12:17:20;27.60;87.60
32400;DHT22;45045;45.440;9.178;2023-06-14T12:19:46;27.70;89.60
32400;DHT22;45045;45.440;9.178;2023-06-14T12:22:13;27.90;89.40
32400;DHT22;45045;45.440;9.178;2023-06-14T12:24:42;27.80;90.20
32400;DHT22;45045;45.440;9.178;2023-06-14T12:27:08;27.70;89.30
32400;DHT22;45045;45.440;9.178;2023-06-14T12:29:33;27.60;90.00
32400;DHT22;45045;45.440;9.178;2023-06-14T12:31:59;27.60;89.70
32400;DHT22;45045;45.440;9.178;2023-06-14T12:34:25;27.80;90.00
32400;DHT22;45045;45.440;9.178;2023-06-14T12:36:52;27.90;90.40
32400;DHT22;45045;45.440;9.178;2023-06-14T12:39:18;28.10;89.70
32400;DHT22;45045;45.440;9.178;2023-06-14T12:41:44;28.00;90.00
32400;DHT22;45045;45.440;9.178;2023-06-14T12:44:13;28.00;89.10
32400;DHT22;45045;45.440;9.178;2023-06-14T12:46:40;27.90;89.70
32400;DHT22;45045;45.440;9.178;2023-06-14T12:49:11;28.00;87.70
32400;DHT22;45045;45.440;9.178;2023-06-14T12:51:39;28.10;87.30
32400;DHT22;45045;45.440;9.178;2023-06-14T12:54:05;28.20;87.60
32400;DHT22;45045;45.440;9.178;2023-06-14T12:56:31;28.10;87.60
32400;DHT22;45045;45.440;9.178;2023-06-14T12:58:58;28.00;88.30
32400;DHT22;45045;45.440;9.178;2023-06-14T13:01:24;28.00;88.70
32400;DHT22;45045;45.440;9.178;2023-06-14T13:03:50;28.30;86.90
32400;DHT22;45045;45.440;9.178;2023-06-14T13:06:17;28.50;86.50
32400;DHT22;45045;45.440;9.178;2023-06-14T13:08:43;28.40;86.00
32400;DHT22;45045;45.440;9.178;2023-06-14T13:11:10;28.30;87.60
32400;DHT22;45045;45.440;9.178;2023-06-14T13:13:35;28.20;88.00
32400;DHT22;45045;45.440;9.178;2023-06-14T13:16:01;28.30;88.20
32400;DHT22;45045;45.440;9.178;2023-06-14T13:18:26;28.40;87.80
32400;DHT22;45045;45.440;9.178;2023-06-14T13:20:52;28.40;87.80
32400;DHT22;45045;45.440;9.178;2023-06-14T13:23:18;28.30;87.80
32400;DHT22;45045;45.440;9.178;2023-06-14T13:25:43;28.30;88.50
32400;DHT22;45045;45.440;9.178;2023-06-14T13:28:09;28.30;88.80
32400;DHT22;45045;45.440;9.178;2023-06-14T13:30:35;28.30;88.60
32400;DHT22;45045;45.440;9.178;2023-06-14T13:33:01;28.40;89.30
32400;DHT22;45045;45.440;9.178;2023-06-14T13:35:27;28.50;88.60
32400;DHT22;45045;45.440;9.178;2023-06-14T13:37:53;28.40;89.20
32400;DHT22;45045;45.440;9.178;2023-06-14T13:40:18;28.50;88.50
32400;DHT22;45045;45.440;9.178;2023-06-14T13:42:45;28.20;89.20
32400;DHT22;45045;45.440;9.178;2023-06-14T13:45:12;28.20;89.70
32400;DHT22;45045;45.440;9.178;2023-06-14T13:47:38;28.30;90.10
32400;DHT22;45045;45.440;9.178;2023-06-14T13:50:04;28.50;89.10
32400;DHT22;45045;45.440;9.178;2023-06-14T13:52:30;28.60;89.00
32400;DHT22;45045;45.440;9.178;2023-06-14T13:54:56;28.50;88.70
32400;DHT22;45045;45.440;9.178;2023-06-14T13:57:22;28.50;86.70
32400;DHT22;45045;45.440;9.178;2023-06-14T13:59:48;28.60;87.70
32400;DHT22;45045;45.440;9.178;2023-06-14T14:02:14;28.60;87.20
32400;DHT22;45045;45.440;9.178;2023-06-14T14:04:40;28.60;86.80
32400;DHT22;45045;45.440;9.178;2023-06-14T14:07:06;28.70;86.10
32400;DHT22;45045;45.440;9.178;2023-06-14T14:09:33;28.60;86.40
32400;DHT22;45045;45.440;9.178;2023-06-14T14:12:00;28.60;86.60
32400;DHT22;45045;45.440;9.178;2023-06-14T14:14:27;28.80;85.70
32400;DHT22;45045;45.440;9.178;2023-06-14T14:16:52;28.70;84.40
32400;DHT22;45045;45.440;9.178;2023-06-14T14:19:23;28.90;85.90
32400;DHT22;45045;45.440;9.178;2023-06-14T14:21:49;28.80;84.40
32400;DHT22;45045;45.440;9.178;2023-06-14T14:24:15;28.70;84.80
32400;DHT22;45045;45.440;9.178;2023-06-14T14:26:41;28.70;85.30
32400;DHT22;45045;45.440;9.178;2023-06-14T14:29:08;28.60;86.00
32400;DHT22;45045;45.440;9.178;2023-06-14T14:31:34;28.60;86.40
32400;DHT22;45045;45.440;9.178;2023-06-14T14:34:00;28.70;85.80
32400;DHT22;45045;45.440;9.178;2023-06-14T14:36:25;28.70;85.50
32400;DHT22;45045;45.440;9.178;2023-06-14T14:38:51;28.80;85.60
32400;DHT22;45045;45.440;9.178;2023-06-14T14:41:17;28.70;84.60
32400;DHT22;45045;45.440;9.178;2023-06-14T14:43:43;28.80;84.60
32400;DHT22;45045;45.440;9.178;2023-06-14T14:46:09;28.70;84.60
32400;DHT22;45045;45.440;9.178;2023-06-14T14:48:35;28.60;84.90
32400;DHT22;45045;45.440;9.178;2023-06-14T14:51:00;28.80;84.60
32400;DHT22;45045;45.440;9.178;2023-06-14T14:53:26;28.80;83.80
32400;DHT22;45045;45.440;9.178;2023-06-14T14:55:51;28.80;83.90
32400;DHT22;45045;45.440;9.178;2023-06-14T14:58:17;28.80;83.90
32400;DHT22;45045;45.440;9.178;2023-06-14T15:00:47;28.80;83.80
32400;DHT22;45045;45.440;9.178;2023-06-14T15:03:14;28.70;83.60
32400;DHT22;45045;45.440;9.178;2023-06-14T15:05:40;28.80;83.20
32400;DHT22;45045;45.440;9.178;2023-06-14T15:08:06;28.90;83.10
32400;DHT22;45045;45.440;9.178;2023-06-14T15:10:38;29.00;82.50
32400;DHT22;45045;45.440;9.178;2023-06-14T15:13:10;28.90;82.80
32400;DHT22;45045;45.440;9.178;2023-06-14T15:15:36;29.00;82.00
32400;DHT22;45045;45.440;9.178;2023-06-14T15:18:02;29.00;81.80
32400;DHT22;45045;45.440;9.178;2023-06-14T15:20:28;28.90;82.00
32400;DHT22;45045;45.440;9.178;2023-06-14T15:22:54;28.80;81.50
32400;DHT22;45045;45.440;9.178;2023-06-14T15:25:29;29.00;82.20
32400;DHT22;45045;45.440;9.178;2023-06-14T15:27:56;29.00;82.50
32400;DHT22;45045;45.440;9.178;2023-06-14T15:30:23;28.90;82.20
32400;DHT22;45045;45.440;9.178;2023-06-14T15:32:49;28.90;82.60
32400;DHT22;45045;45.440;9.178;2023-06-14T15:35:17;28.80;83.00
32400;DHT22;45045;45.440;9.178;2023-06-14T15:37:43;28.90;82.60
32400;DHT22;45045;45.440;9.178;2023-06-14T15:40:09;28.80;81.90
32400;DHT22;45045;45.440;9.178;2023-06-14T15:42:35;28.90;81.90
32400;DHT22;45045;45.440;9.178;2023-06-14T15:45:01;28.80;82.20
32400;DHT22;45045;45.440;9.178;2023-06-14T15:47:26;28.80;82.20
32400;DHT22;45045;45.440;9.178;2023-06-14T15:49:52;28.70;82.60
32400;DHT22;45045;45.440;9.178;2023-06-14T15:52:17;28.70;82.50
32400;DHT22;45045;45.440;9.178;2023-06-14T15:54:43;28.60;83.00
32400;DHT22;45045;45.440;9.178;2023-06-14T15:57:09;28.70;82.80